createdAt,value
2023-01-22T00:01:09.135Z,10.37
2023-01-22T00:03:40.070Z,11.03
2023-01-22T00:06:07.120Z,10.53
2023-01-22T00:08:34.636Z,9.80
2023-01-22T00:11:02.697Z,10.63
2023-01-22T00:13:29.476Z,9.77
2023-01-22T00:15:59.661Z,10.93
2023-01-22T00:18:26.436Z,10.43
2023-01-22T00:20:54.502Z,9.97
2023-01-22T00:23:21.229Z,10.40
2023-01-22T00:25:47.631Z,10.13
2023-01-22T00:28:14.301Z,10.40
2023-01-22T00:30:40.743Z,9.77
2023-01-22T00:33:07.157Z,10.43
2023-01-22T00:35:35.157Z,10.90
2023-01-22T00:38:03.784Z,11.27
2023-01-22T00:40:30.317Z,10.87
2023-01-22T00:42:56.802Z,10.37
2023-01-22T00:45:23.322Z,11.37
2023-01-22T00:47:50.886Z,10.50
2023-01-22T00:50:17.751Z,10.67
2023-01-22T00:52:44.954Z,10.60
2023-01-22T00:55:11.651Z,10.90
2023-01-22T00:57:38.049Z,10.97
2023-01-22T01:00:05.411Z,11.43
2023-01-22T01:02:32.188Z,10.07
2023-01-22T01:04:58.601Z,10.67
2023-01-22T01:07:25.004Z,11.03
2023-01-22T01:09:51.478Z,11.07
2023-01-22T01:12:19.894Z,11.20
2023-01-22T01:14:46.315Z,10.63
2023-01-22T01:17:12.743Z,11.03
2023-01-22T01:19:39.386Z,11.30
2023-01-22T01:22:08.067Z,10.60
2023-01-22T01:24:36.406Z,11.20
2023-01-22T01:27:02.831Z,10.53
2023-01-22T01:29:29.848Z,10.63
2023-01-22T01:31:57.746Z,10.07
2023-01-22T01:34:24.261Z,10.77
2023-01-22T01:36:50.774Z,10.93
2023-01-22T01:39:17.994Z,10.53
2023-01-22T01:41:44.632Z,10.40
2023-01-22T01:44:21.682Z,10.27
2023-01-22T01:47:00.294Z,10.13
2023-01-22T01:49:48.675Z,10.80
2023-01-22T01:52:17.455Z,10.63
2023-01-22T01:54:49.232Z,10.70
2023-01-22T01:57:21.002Z,11.00
2023-01-22T01:59:49.493Z,9.60
2023-01-22T02:02:17.090Z,10.50
2023-01-22T02:04:43.543Z,10.60
2023-01-22T02:07:10.371Z,11.17
2023-01-22T02:09:36.979Z,10.63
2023-01-22T02:12:04.581Z,11.03
2023-01-22T02:14:34.169Z,10.30
2023-01-22T02:17:12.727Z,10.80
2023-01-22T02:19:40.544Z,10.77
2023-01-22T02:22:21.918Z,10.53
2023-01-22T02:24:49.252Z,10.47
2023-01-22T02:27:17.929Z,10.77
2023-01-22T02:29:46.167Z,10.93
2023-01-22T02:32:12.976Z,10.93
2023-01-22T02:34:39.721Z,10.80
2023-01-22T02:37:06.875Z,10.90
2023-01-22T02:39:33.367Z,10.20
2023-01-22T02:42:04.793Z,9.67
2023-01-22T02:44:31.986Z,10.83
2023-01-22T02:46:58.421Z,9.67
2023-01-22T02:49:26.557Z,9.57
2023-01-22T02:51:52.995Z,9.80
2023-01-22T02:54:20.548Z,9.23
2023-01-22T02:56:47.105Z,9.43
2023-01-22T02:59:13.635Z,10.27
2023-01-22T03:01:41.067Z,9.50
2023-01-22T03:04:13.517Z,9.60
2023-01-22T03:06:44.429Z,9.47
2023-01-22T03:09:13.819Z,9.33
2023-01-22T03:11:42.468Z,9.63
2023-01-22T03:14:53.550Z,9.07
2023-01-22T03:17:38.855Z,9.33
2023-01-22T03:20:24.849Z,9.10
2023-01-22T03:22:52.636Z,9.17
2023-01-22T03:25:19.338Z,9.57
2023-01-22T03:28:07.029Z,9.07
2023-01-22T03:30:34.952Z,8.93
2023-01-22T03:33:02.312Z,8.83
2023-01-22T03:35:30.566Z,8.70
2023-01-22T03:38:11.740Z,9.00
2023-01-22T03:40:38.156Z,8.40
2023-01-22T03:43:04.810Z,8.43
2023-01-22T03:45:33.911Z,8.90
2023-01-22T03:48:02.182Z,8.43
2023-01-22T03:50:35.115Z,8.30
2023-01-22T03:53:03.948Z,8.10
2023-01-22T03:55:31.559Z,8.50
2023-01-22T03:57:57.970Z,8.87
2023-01-22T04:00:24.608Z,8.47
2023-01-22T04:02:53.578Z,8.57
2023-01-22T04:05:24.122Z,8.70
2023-01-22T04:07:50.881Z,9.00
2023-01-22T04:10:21.431Z,8.23
2023-01-22T04:12:48.590Z,7.93
2023-01-22T04:15:18.169Z,8.17
2023-01-22T04:17:46.076Z,8.57
2023-01-22T04:20:27.355Z,8.37
2023-01-22T04:23:17.167Z,8.50
2023-01-22T04:25:44.765Z,8.20
2023-01-22T04:28:11.920Z,8.10
2023-01-22T04:30:38.890Z,8.07
2023-01-22T04:33:24.058Z,9.57
2023-01-22T04:36:08.564Z,9.43
2023-01-22T04:38:35.148Z,8.20
2023-01-22T04:41:02.560Z,8.97
2023-01-22T04:43:29.057Z,9.10
2023-01-22T04:45:55.558Z,9.97
2023-01-22T04:48:28.246Z,9.83
2023-01-22T04:50:54.745Z,9.73
2023-01-22T04:53:21.347Z,10.03
2023-01-22T04:55:47.860Z,9.10
2023-01-22T04:58:14.792Z,9.63
2023-01-22T05:00:41.864Z,9.87
2023-01-22T05:03:10.545Z,9.77
2023-01-22T05:05:37.068Z,9.43
2023-01-22T05:08:04.115Z,9.50
2023-01-22T05:10:34.040Z,9.30
2023-01-22T05:13:06.131Z,9.50
2023-01-22T05:15:34.290Z,10.40
2023-01-22T05:18:06.623Z,9.90
2023-01-22T05:20:35.839Z,9.93
2023-01-22T05:23:02.365Z,10.40
2023-01-22T05:25:30.455Z,10.10
2023-01-22T05:27:58.218Z,9.90
2023-01-22T05:30:43.362Z,9.70
2023-01-22T05:33:24.057Z,10.80
2023-01-22T05:35:58.697Z,10.57
2023-01-22T05:38:25.923Z,11.00
2023-01-22T05:40:52.973Z,10.80
2023-01-22T05:43:20.814Z,10.07
2023-01-22T05:45:53.311Z,11.00
2023-01-22T05:48:42.985Z,10.03
2023-01-22T05:51:12.481Z,11.63
2023-01-22T05:53:39.319Z,10.97
2023-01-22T05:56:06.295Z,10.33
2023-01-22T05:58:37.170Z,10.63
2023-01-22T06:01:04.357Z,11.30
2023-01-22T06:03:38.092Z,11.27
2023-01-22T06:06:08.700Z,11.50
2023-01-22T06:08:35.208Z,11.10
2023-01-22T06:11:07.092Z,11.37
2023-01-22T06:13:34.285Z,11.27
2023-01-22T06:16:09.646Z,11.00
2023-01-22T06:18:54.913Z,11.67
2023-01-22T06:21:23.535Z,11.40
2023-01-22T06:23:50.484Z,10.83
2023-01-22T06:26:17.543Z,10.97
2023-01-22T06:28:44.594Z,10.93
2023-01-22T06:31:11.261Z,11.20
2023-01-22T06:33:38.619Z,10.77
2023-01-22T06:36:06.072Z,11.10
2023-01-22T06:38:33.148Z,10.23
2023-01-22T06:41:02.577Z,10.77
2023-01-22T06:43:33.131Z,10.97
2023-01-22T06:45:59.689Z,11.40
2023-01-22T06:48:54.205Z,10.53
2023-01-22T06:51:20.699Z,10.77
2023-01-22T06:53:47.266Z,10.47
2023-01-22T06:56:13.747Z,10.13
2023-01-22T06:58:40.659Z,11.30
2023-01-22T07:01:07.647Z,11.13
2023-01-22T07:03:34.161Z,11.63
2023-01-22T07:06:02.756Z,10.07
2023-01-22T07:08:31.484Z,11.33
2023-01-22T07:10:58.509Z,11.30
2023-01-22T07:13:24.968Z,11.17
2023-01-22T07:15:51.594Z,11.00
2023-01-22T07:18:19.951Z,12.13
2023-01-22T07:20:47.279Z,12.80
2023-01-22T07:23:13.986Z,10.97
2023-01-22T07:25:40.826Z,11.77
2023-01-22T07:28:07.641Z,11.77
2023-01-22T07:30:34.305Z,11.77
2023-01-22T07:33:02.594Z,11.40
2023-01-22T07:35:29.480Z,11.47
2023-01-22T07:37:58.470Z,10.87
2023-01-22T07:40:25.819Z,11.33
2023-01-22T07:42:53.044Z,12.03
2023-01-22T07:45:21.279Z,12.13
2023-01-22T07:47:58.695Z,12.47
2023-01-22T07:50:30.672Z,12.40
2023-01-22T07:52:57.529Z,12.43
2023-01-22T07:55:24.017Z,13.20
2023-01-22T07:58:01.979Z,12.50
2023-01-22T08:00:28.694Z,12.67
2023-01-22T08:02:55.202Z,11.77
2023-01-22T08:05:22.008Z,12.17
2023-01-22T08:07:48.523Z,12.83
2023-01-22T08:10:17.069Z,12.37
2023-01-22T08:12:46.152Z,11.30
2023-01-22T08:15:14.574Z,11.23
2023-01-22T08:17:41.743Z,10.33
2023-01-22T08:20:09.572Z,10.57
2023-01-22T08:22:36.121Z,11.43
2023-01-22T08:25:02.603Z,11.43
2023-01-22T08:27:29.080Z,11.63
2023-01-22T08:29:55.496Z,11.70
2023-01-22T08:32:22.094Z,11.53
2023-01-22T08:34:48.580Z,11.87
2023-01-22T08:37:15.025Z,12.87
2023-01-22T08:39:41.501Z,12.00
2023-01-22T08:42:07.897Z,12.20
2023-01-22T08:44:34.430Z,11.07
2023-01-22T08:47:00.857Z,11.33
2023-01-22T08:49:27.275Z,11.30
2023-01-22T08:51:53.692Z,10.50
2023-01-22T08:54:20.121Z,10.03
2023-01-22T08:56:47.953Z,9.67
2023-01-22T08:59:15.634Z,10.77
2023-01-22T09:01:42.128Z,10.10
2023-01-22T09:04:09.929Z,11.37
2023-01-22T09:06:38.499Z,10.37
2023-01-22T09:09:07.129Z,10.43
2023-01-22T09:11:34.004Z,10.37
2023-01-22T09:14:00.457Z,10.10
2023-01-22T09:16:27.851Z,10.70
2023-01-22T09:18:54.469Z,11.03
2023-01-22T09:21:20.922Z,10.30
2023-01-22T09:23:47.670Z,10.40
2023-01-22T09:26:14.138Z,10.40
2023-01-22T09:28:40.868Z,10.63
2023-01-22T09:31:07.461Z,11.33
2023-01-22T09:33:33.921Z,11.13
2023-01-22T09:36:08.095Z,11.73
2023-01-22T09:38:34.710Z,14.80
2023-01-22T09:41:11.147Z,12.10
2023-01-22T09:43:50.563Z,12.30
2023-01-22T09:46:23.084Z,12.33
2023-01-22T09:48:59.936Z,11.63
2023-01-22T09:51:26.507Z,11.03
2023-01-22T09:53:56.854Z,10.60
2023-01-22T09:56:40.138Z,10.90
2023-01-22T09:59:12.594Z,11.30
2023-01-22T10:01:39.043Z,11.53
2023-01-22T10:04:14.060Z,10.53
2023-01-22T10:06:43.446Z,10.00
2023-01-22T10:09:15.952Z,9.63
2023-01-22T10:11:50.095Z,10.70
2023-01-22T10:14:19.206Z,11.13
2023-01-22T10:16:45.848Z,11.77
2023-01-22T10:19:26.520Z,11.40
2023-01-22T10:22:02.271Z,11.43
2023-01-22T10:24:30.097Z,10.17
2023-01-22T10:26:58.880Z,10.37
2023-01-22T10:29:30.942Z,9.60
2023-01-22T10:32:02.905Z,9.53
2023-01-22T10:34:36.187Z,9.50
2023-01-22T10:37:22.855Z,8.97
2023-01-22T10:39:50.551Z,9.60
2023-01-22T10:42:22.980Z,9.60
2023-01-22T10:44:50.297Z,9.20
2023-01-22T10:47:20.635Z,8.50
2023-01-22T10:49:48.969Z,9.33
2023-01-22T10:52:24.738Z,8.73
2023-01-22T10:54:55.532Z,8.83
2023-01-22T10:57:43.110Z,9.60
2023-01-22T11:00:18.774Z,9.33
2023-01-22T11:02:47.791Z,8.93
2023-01-22T11:05:24.295Z,8.40
2023-01-22T11:08:07.169Z,8.60
2023-01-22T11:10:48.715Z,8.47
2023-01-22T11:13:28.667Z,8.37
2023-01-22T11:16:11.815Z,8.00
2023-01-22T11:18:42.363Z,8.63
2023-01-22T11:21:32.115Z,7.57
2023-01-22T11:24:13.373Z,7.57
2023-01-22T11:26:57.415Z,7.10
2023-01-22T11:29:39.150Z,6.47
2023-01-22T11:32:11.531Z,6.50
2023-01-22T11:35:17.192Z,6.53
2023-01-22T11:38:10.664Z,6.37
2023-01-22T11:41:11.076Z,6.50
2023-01-22T11:43:49.930Z,6.23
2023-01-22T11:46:42.330Z,6.10
2023-01-22T11:49:36.765Z,5.90
2023-01-22T11:52:41.147Z,6.43
2023-01-22T11:55:35.126Z,6.50
2023-01-22T11:58:26.731Z,6.17
2023-01-22T12:01:08.679Z,6.60
2023-01-22T12:04:01.103Z,6.47
2023-01-22T12:06:39.479Z,5.90
2023-01-22T12:09:15.809Z,6.30
2023-01-22T12:12:04.874Z,5.87
2023-01-22T12:14:47.162Z,6.33
2023-01-22T12:17:38.781Z,6.10
2023-01-22T12:20:25.477Z,6.10
2023-01-22T12:23:00.895Z,6.13
2023-01-22T12:25:51.708Z,5.93
2023-01-22T12:28:24.483Z,5.80
2023-01-22T12:31:00.273Z,5.80
2023-01-22T12:33:31.421Z,5.63
2023-01-22T12:36:02.438Z,6.23
2023-01-22T12:38:46.733Z,6.63
2023-01-22T12:41:26.939Z,5.70
2023-01-22T12:43:59.807Z,5.30
2023-01-22T12:47:02.885Z,5.50
2023-01-22T12:49:29.376Z,5.23
2023-01-22T12:51:59.844Z,5.60
2023-01-22T12:54:26.249Z,5.47
2023-01-22T12:57:10.169Z,6.13
2023-01-22T12:59:36.489Z,5.60
2023-01-22T13:02:26.345Z,5.57
2023-01-22T13:04:53.889Z,5.80
2023-01-22T13:07:29.456Z,6.53
2023-01-22T13:10:21.389Z,6.80
2023-01-22T13:12:57.206Z,6.37
2023-01-22T13:15:28.269Z,6.50
2023-01-22T13:18:06.239Z,7.13
2023-01-22T13:20:37.291Z,7.00
2023-01-22T13:23:06.505Z,6.70
2023-01-22T13:25:33.492Z,6.60
2023-01-22T13:28:01.634Z,6.87
2023-01-22T13:30:30.874Z,7.47
2023-01-22T13:33:05.056Z,7.33
2023-01-22T13:35:34.898Z,7.40
2023-01-22T13:38:02.295Z,6.93
2023-01-22T13:40:37.095Z,6.90
2023-01-22T13:43:16.749Z,8.10
2023-01-22T13:45:43.431Z,8.70
2023-01-22T13:48:15.954Z,9.07
2023-01-22T13:50:47.704Z,8.70
2023-01-22T13:53:53.059Z,9.97
2023-01-22T13:56:22.907Z,10.13
2023-01-22T13:58:50.106Z,10.17
2023-01-22T14:01:29.781Z,10.63
2023-01-22T14:04:02.047Z,10.80
2023-01-22T14:06:29.668Z,10.97
2023-01-22T14:08:57.245Z,10.97
2023-01-22T14:11:23.804Z,10.57
2023-01-22T14:13:52.118Z,10.23
2023-01-22T14:16:18.797Z,10.83
2023-01-22T14:18:46.768Z,10.93
2023-01-22T14:21:13.812Z,10.93
2023-01-22T14:23:41.711Z,11.70
2023-01-22T14:26:09.223Z,11.53
2023-01-22T14:28:36.395Z,11.23
2023-01-22T14:31:02.981Z,10.10
2023-01-22T14:33:32.421Z,10.30
2023-01-22T14:35:59.398Z,11.13
2023-01-22T14:38:27.060Z,11.07
2023-01-22T14:40:54.071Z,12.00
2023-01-22T14:43:20.956Z,11.47
2023-01-22T14:45:47.610Z,10.57
2023-01-22T14:48:18.050Z,10.30
2023-01-22T14:50:44.888Z,9.97
2023-01-22T14:53:12.711Z,10.77
2023-01-22T14:55:39.189Z,9.70
2023-01-22T14:58:08.437Z,9.80
2023-01-22T15:00:34.933Z,9.67
2023-01-22T15:03:01.462Z,8.77
2023-01-22T15:05:28.353Z,8.50
2023-01-22T15:07:54.923Z,8.87
2023-01-22T15:10:21.777Z,8.37
2023-01-22T15:12:50.403Z,8.57
2023-01-22T15:15:22.880Z,9.50
2023-01-22T15:17:52.744Z,8.67
2023-01-22T15:20:20.225Z,10.33
2023-01-22T15:22:47.108Z,9.50
2023-01-22T15:25:13.654Z,10.17
2023-01-22T15:27:40.208Z,10.13
2023-01-22T15:30:07.396Z,11.63
2023-01-22T15:32:33.872Z,10.77
2023-01-22T15:35:00.271Z,12.37
2023-01-22T15:37:26.670Z,11.53
2023-01-22T15:39:53.102Z,13.27
2023-01-22T15:42:19.651Z,9.70
2023-01-22T15:44:46.055Z,9.93
2023-01-22T15:47:14.322Z,9.17
2023-01-22T15:49:41.585Z,10.27
2023-01-22T15:52:08.124Z,10.67
2023-01-22T15:54:34.524Z,10.07
2023-01-22T15:57:00.959Z,10.83
2023-01-22T15:59:27.328Z,10.07
2023-01-22T16:01:53.777Z,10.20
2023-01-22T16:04:20.171Z,10.80
2023-01-22T16:06:46.844Z,10.13
2023-01-22T16:09:13.416Z,10.87
2023-01-22T16:11:39.914Z,11.00
2023-01-22T16:14:06.517Z,11.00
2023-01-22T16:16:36.664Z,12.33
2023-01-22T16:19:06.375Z,12.33
2023-01-22T16:21:32.867Z,10.47
2023-01-22T16:24:00.831Z,11.57
2023-01-22T16:26:30.587Z,12.13
2023-01-22T16:28:59.150Z,12.83
2023-01-22T16:31:28.267Z,13.30
2023-01-22T16:33:57.340Z,13.27
2023-01-22T16:36:26.367Z,14.00
2023-01-22T16:38:52.989Z,13.90
2023-01-22T16:41:24.720Z,13.63
2023-01-22T16:44:00.798Z,12.37
2023-01-22T16:46:29.994Z,12.10
2023-01-22T16:48:58.766Z,13.63
2023-01-22T16:51:27.808Z,13.40
2023-01-22T16:53:54.482Z,11.77
2023-01-22T16:56:21.011Z,11.13
2023-01-22T16:58:47.493Z,12.00
2023-01-22T17:01:14.701Z,12.03
2023-01-22T17:03:41.551Z,10.87
2023-01-22T17:06:22.739Z,10.43
2023-01-22T17:08:50.473Z,10.93
2023-01-22T17:11:17.345Z,12.53
2023-01-22T17:13:44.176Z,13.47
2023-01-22T17:16:11.796Z,15.50
2023-01-22T17:18:38.555Z,18.97
2023-01-22T17:21:06.869Z,18.10
2023-01-22T17:23:34.480Z,17.73
2023-01-22T17:26:08.773Z,17.50
2023-01-22T17:28:37.390Z,16.27
2023-01-22T17:31:08.267Z,20.00
2023-01-22T17:33:35.689Z,20.83
2023-01-22T17:36:04.087Z,20.63
2023-01-22T17:38:32.988Z,17.70
2023-01-22T17:41:07.140Z,19.43
2023-01-22T17:43:34.720Z,15.90
2023-01-22T17:46:01.434Z,13.43
2023-01-22T17:48:28.381Z,13.57
2023-01-22T17:50:54.820Z,14.87
2023-01-22T17:53:21.292Z,13.37
2023-01-22T17:55:47.912Z,12.17
2023-01-22T17:58:14.435Z,11.97
2023-01-22T18:00:40.951Z,11.53
2023-01-22T18:03:07.613Z,11.53
2023-01-22T18:05:34.374Z,10.73
2023-01-22T18:08:00.890Z,12.27
2023-01-22T18:10:28.161Z,12.27
2023-01-22T18:12:54.613Z,13.07
2023-01-22T18:15:21.658Z,13.70
2023-01-22T18:17:49.413Z,15.10
2023-01-22T18:20:16.259Z,13.50
2023-01-22T18:22:42.865Z,13.83
2023-01-22T18:25:09.560Z,14.27
2023-01-22T18:27:35.985Z,13.83
2023-01-22T18:30:03.153Z,13.73
2023-01-22T18:32:29.576Z,15.97
2023-01-22T18:34:56.038Z,16.17
2023-01-22T18:37:22.492Z,16.53
2023-01-22T18:39:48.895Z,15.83
2023-01-22T18:42:15.441Z,15.03
2023-01-22T18:44:41.883Z,15.57
2023-01-22T18:47:11.331Z,16.10
2023-01-22T18:49:37.915Z,15.87
2023-01-22T18:52:04.500Z,16.23
2023-01-22T18:54:30.945Z,15.10
2023-01-22T18:56:58.091Z,15.73
2023-01-22T18:59:24.522Z,16.93
2023-01-22T19:01:51.817Z,15.97
2023-01-22T19:04:21.669Z,17.07
2023-01-22T19:06:53.261Z,16.23
2023-01-22T19:09:20.767Z,16.93
2023-01-22T19:11:49.156Z,16.03
2023-01-22T19:14:17.920Z,16.63
2023-01-22T19:16:44.941Z,15.40
2023-01-22T19:19:13.565Z,14.63
2023-01-22T19:21:46.755Z,15.83
2023-01-22T19:24:15.769Z,15.07
2023-01-22T19:26:45.381Z,15.70
2023-01-22T19:29:15.494Z,14.97
2023-01-22T19:31:46.255Z,15.30
2023-01-22T19:34:16.236Z,14.17
2023-01-22T19:36:42.914Z,13.77
2023-01-22T19:39:11.899Z,14.00
2023-01-22T19:41:42.648Z,15.43
2023-01-22T19:44:10.826Z,15.20
2023-01-22T19:46:38.519Z,15.13
2023-01-22T19:49:06.456Z,14.67
2023-01-22T19:51:33.816Z,15.03
2023-01-22T19:54:01.258Z,14.77
2023-01-22T19:56:30.118Z,13.77
2023-01-22T19:59:06.407Z,14.70
2023-01-22T20:01:34.034Z,14.53
2023-01-22T20:04:00.738Z,13.87
2023-01-22T20:06:27.443Z,14.83
2023-01-22T20:08:55.749Z,13.83
2023-01-22T20:11:22.710Z,14.53
2023-01-22T20:13:49.226Z,14.57
2023-01-22T20:16:22.186Z,15.00
2023-01-22T20:18:49.724Z,14.83
2023-01-22T20:21:17.055Z,15.47
2023-01-22T20:23:45.592Z,16.53
2023-01-22T20:26:12.970Z,15.43
2023-01-22T20:28:39.700Z,16.20
2023-01-22T20:31:11.170Z,14.80
2023-01-22T20:33:38.404Z,15.47
2023-01-22T20:36:07.832Z,15.23
2023-01-22T20:38:35.344Z,15.33
2023-01-22T20:41:05.293Z,14.30
2023-01-22T20:43:32.350Z,14.97
2023-01-22T20:46:04.769Z,14.77
2023-01-22T20:48:33.190Z,12.90
2023-01-22T20:51:00.461Z,13.17
2023-01-22T20:53:27.847Z,12.93
2023-01-22T20:55:59.454Z,12.97
2023-01-22T20:58:26.383Z,14.30
2023-01-22T21:00:52.839Z,13.93
2023-01-22T21:03:20.751Z,14.80
2023-01-22T21:05:47.189Z,14.53
2023-01-22T21:08:14.947Z,15.87
2023-01-22T21:10:41.973Z,16.63
2023-01-22T21:13:08.442Z,16.87
2023-01-22T21:15:34.858Z,16.83
2023-01-22T21:18:01.438Z,17.53
2023-01-22T21:20:28.025Z,17.20
2023-01-22T21:22:54.436Z,17.57
2023-01-22T21:25:20.831Z,15.23
2023-01-22T21:27:48.126Z,15.83
2023-01-22T21:30:17.088Z,14.43
2023-01-22T21:32:43.788Z,16.80
2023-01-22T21:35:10.593Z,17.13
2023-01-22T21:37:36.993Z,16.07
2023-01-22T21:40:04.037Z,15.53
2023-01-22T21:42:48.969Z,15.97
2023-01-22T21:45:33.996Z,14.87
2023-01-22T21:48:00.396Z,14.33
2023-01-22T21:50:29.406Z,15.17
2023-01-22T21:52:55.806Z,14.70
2023-01-22T21:55:23.485Z,15.53
2023-01-22T21:57:51.093Z,16.47
2023-01-22T22:00:19.555Z,17.27
2023-01-22T22:02:46.266Z,16.30
2023-01-22T22:05:12.976Z,15.97
2023-01-22T22:07:39.398Z,16.43
2023-01-22T22:10:11.620Z,16.37
2023-01-22T22:12:39.385Z,16.13
2023-01-22T22:15:06.702Z,16.53
2023-01-22T22:17:33.128Z,15.57
2023-01-22T22:19:59.514Z,15.60
2023-01-22T22:22:25.960Z,15.77
2023-01-22T22:24:53.655Z,16.70
2023-01-22T22:27:20.787Z,15.27
2023-01-22T22:29:47.266Z,16.27
2023-01-22T22:32:13.888Z,14.80
2023-01-22T22:34:40.540Z,15.33
2023-01-22T22:37:07.007Z,16.47
2023-01-22T22:39:33.432Z,16.00
2023-01-22T22:41:59.814Z,16.50
2023-01-22T22:44:26.190Z,15.70
2023-01-22T22:46:52.615Z,15.90
2023-01-22T22:49:19.017Z,16.23
2023-01-22T22:51:46.095Z,16.10
2023-01-22T22:54:17.773Z,15.83
2023-01-22T22:56:46.463Z,14.93
2023-01-22T22:59:14.050Z,16.73
2023-01-22T23:01:40.598Z,16.23
2023-01-22T23:04:08.268Z,16.10
2023-01-22T23:06:36.108Z,16.83
2023-01-22T23:09:10.849Z,15.73
2023-01-22T23:11:38.174Z,16.47
2023-01-22T23:14:05.064Z,16.30
2023-01-22T23:16:34.954Z,17.13
2023-01-22T23:19:04.361Z,15.73
2023-01-22T23:21:30.940Z,16.37
2023-01-22T23:23:57.380Z,14.40
2023-01-22T23:26:29.798Z,14.93
2023-01-22T23:28:58.785Z,15.33
2023-01-22T23:31:27.016Z,14.40
2023-01-22T23:33:55.440Z,15.80
2023-01-22T23:36:22.547Z,14.60
2023-01-22T23:38:49.623Z,14.70
2023-01-22T23:41:17.557Z,14.13
2023-01-22T23:43:44.546Z,14.60
2023-01-22T23:46:16.935Z,14.17
2023-01-22T23:48:43.573Z,14.30
2023-01-22T23:51:12.066Z,13.90
2023-01-22T23:53:41.067Z,14.87
2023-01-22T23:56:09.424Z,14.40
2023-01-22T23:58:36.053Z,13.20
